createdAt,value
2023-01-25T00:00:53.985Z,35.72
2023-01-25T00:03:23.217Z,38.50
2023-01-25T00:06:02.452Z,32.38
2023-01-25T00:08:31.711Z,33.65
2023-01-25T00:11:00.876Z,30.50
2023-01-25T00:13:29.940Z,29.80
2023-01-25T00:16:06.720Z,30.33
2023-01-25T00:18:35.881Z,30.00
2023-01-25T00:21:35.242Z,30.52
2023-01-25T00:24:05.925Z,28.40
2023-01-25T00:26:36.796Z,30.20
2023-01-25T00:29:06.644Z,42.78
2023-01-25T00:31:35.877Z,39.30
2023-01-25T00:34:26.375Z,31.00
2023-01-25T00:37:19.570Z,32.08
2023-01-25T00:39:49.074Z,31.02
2023-01-25T00:42:20.556Z,32.20
2023-01-25T00:44:50.935Z,28.42
2023-01-25T00:47:20.272Z,29.95
2023-01-25T00:49:49.564Z,30.05
2023-01-25T00:52:19.176Z,27.95
2023-01-25T00:54:48.290Z,28.92
2023-01-25T00:57:17.397Z,26.25
2023-01-25T00:59:48.414Z,27.02
2023-01-25T01:02:17.560Z,26.98
2023-01-25T01:04:46.997Z,28.80
2023-01-25T01:07:17.079Z,27.70
2023-01-25T01:09:46.237Z,27.20
2023-01-25T01:12:15.439Z,26.83
2023-01-25T01:14:44.522Z,26.98
2023-01-25T01:17:14.149Z,27.23
2023-01-25T01:19:43.376Z,26.60
2023-01-25T01:22:13.069Z,30.10
2023-01-25T01:24:43.312Z,25.55
2023-01-25T01:27:12.465Z,26.10
2023-01-25T01:29:41.675Z,27.58
2023-01-25T01:32:10.952Z,23.40
2023-01-25T01:34:40.136Z,23.17
2023-01-25T01:37:09.313Z,20.85
2023-01-25T01:39:38.470Z,21.25
2023-01-25T01:42:07.596Z,20.52
2023-01-25T01:44:54.432Z,21.10
2023-01-25T01:47:46.796Z,22.05
2023-01-25T01:50:25.822Z,20.92
2023-01-25T01:52:54.975Z,22.00
2023-01-25T01:55:26.250Z,20.35
2023-01-25T01:58:00.716Z,20.98
2023-01-25T02:00:38.320Z,20.52
2023-01-25T02:03:08.084Z,21.50
2023-01-25T02:05:58.726Z,20.25
2023-01-25T02:08:31.868Z,19.58
2023-01-25T02:11:03.158Z,20.15
2023-01-25T02:13:33.572Z,21.50
2023-01-25T02:16:03.513Z,18.63
2023-01-25T02:18:35.102Z,18.73
2023-01-25T02:21:04.371Z,18.90
2023-01-25T02:23:42.017Z,17.60
2023-01-25T02:26:12.502Z,18.25
2023-01-25T02:29:17.950Z,17.55
2023-01-25T02:31:50.557Z,16.35
2023-01-25T02:34:20.505Z,17.38
2023-01-25T02:36:52.573Z,18.98
2023-01-25T02:39:22.292Z,18.05
2023-01-25T02:41:51.512Z,19.05
2023-01-25T02:44:27.379Z,18.13
2023-01-25T02:46:57.320Z,18.98
2023-01-25T02:49:26.849Z,18.08
2023-01-25T02:52:01.204Z,20.02
2023-01-25T02:54:30.490Z,20.02
2023-01-25T02:57:00.159Z,20.50
2023-01-25T02:59:29.498Z,18.92
2023-01-25T03:01:58.973Z,20.13
2023-01-25T03:04:28.373Z,19.75
2023-01-25T03:06:57.780Z,18.58
2023-01-25T03:09:26.996Z,20.10
2023-01-25T03:11:56.207Z,20.42
2023-01-25T03:14:25.417Z,18.83
2023-01-25T03:16:54.867Z,19.67
2023-01-25T03:19:24.096Z,20.98
2023-01-25T03:21:53.320Z,20.02
2023-01-25T03:24:22.614Z,19.35
2023-01-25T03:27:10.051Z,17.40
2023-01-25T03:29:40.029Z,20.27
2023-01-25T03:32:10.042Z,19.83
2023-01-25T03:34:39.427Z,19.92
2023-01-25T03:37:08.680Z,20.77
2023-01-25T03:39:38.052Z,18.45
2023-01-25T03:42:07.467Z,19.98
2023-01-25T03:44:36.694Z,19.42
2023-01-25T03:47:06.095Z,18.90
2023-01-25T03:49:35.382Z,19.60
2023-01-25T03:52:04.761Z,19.73
2023-01-25T03:54:34.156Z,21.95
2023-01-25T03:57:03.379Z,18.80
2023-01-25T03:59:32.559Z,18.23
2023-01-25T04:02:01.897Z,18.60
2023-01-25T04:04:31.251Z,19.17
2023-01-25T04:07:00.468Z,19.80
2023-01-25T04:09:29.765Z,17.65
2023-01-25T04:11:58.965Z,18.38
2023-01-25T04:14:43.288Z,18.25
2023-01-25T04:17:14.006Z,19.52
2023-01-25T04:19:43.263Z,17.25
2023-01-25T04:22:13.841Z,16.48
2023-01-25T04:24:43.253Z,16.98
2023-01-25T04:27:12.863Z,16.10
2023-01-25T04:29:42.237Z,15.40
2023-01-25T04:32:11.773Z,17.42
2023-01-25T04:34:41.201Z,15.32
2023-01-25T04:37:10.348Z,18.10
2023-01-25T04:39:39.603Z,17.98
2023-01-25T04:42:08.823Z,16.40
2023-01-25T04:44:38.039Z,15.73
2023-01-25T04:47:07.269Z,14.52
2023-01-25T04:49:36.485Z,16.65
2023-01-25T04:52:06.090Z,15.02
2023-01-25T04:54:35.295Z,17.65
2023-01-25T04:57:04.869Z,15.23
2023-01-25T04:59:34.271Z,14.63
2023-01-25T05:02:03.565Z,14.43
2023-01-25T05:04:32.823Z,15.25
2023-01-25T05:07:02.158Z,15.05
2023-01-25T05:09:31.754Z,13.18
2023-01-25T05:12:01.079Z,14.15
2023-01-25T05:14:30.406Z,13.52
2023-01-25T05:16:59.741Z,14.63
2023-01-25T05:19:30.072Z,13.38
2023-01-25T05:21:59.284Z,13.65
2023-01-25T05:24:35.223Z,13.30
2023-01-25T05:27:05.698Z,14.07
2023-01-25T05:29:41.507Z,13.55
2023-01-25T05:32:23.902Z,13.80
2023-01-25T05:34:53.615Z,12.98
2023-01-25T05:37:23.747Z,13.25
2023-01-25T05:39:52.935Z,14.00
2023-01-25T05:42:22.398Z,13.75
2023-01-25T05:44:51.768Z,13.20
2023-01-25T05:47:22.055Z,13.25
2023-01-25T05:49:51.252Z,12.40
2023-01-25T05:52:20.450Z,14.55
2023-01-25T05:54:51.012Z,13.20
2023-01-25T05:57:20.198Z,12.10
2023-01-25T05:59:49.520Z,12.60
2023-01-25T06:02:18.857Z,13.05
2023-01-25T06:04:48.175Z,12.35
2023-01-25T06:07:17.496Z,12.00
2023-01-25T06:09:46.724Z,13.40
2023-01-25T06:12:17.128Z,12.50
2023-01-25T06:14:48.244Z,13.40
2023-01-25T06:17:17.804Z,12.88
2023-01-25T06:19:48.241Z,12.15
2023-01-25T06:22:17.521Z,11.85
2023-01-25T06:24:46.756Z,13.82
2023-01-25T06:27:16.108Z,13.70
2023-01-25T06:29:45.385Z,14.05
2023-01-25T06:32:14.673Z,15.18
2023-01-25T06:34:43.910Z,13.95
2023-01-25T06:37:13.202Z,15.32
2023-01-25T06:39:42.393Z,14.88
2023-01-25T06:42:11.789Z,14.73
2023-01-25T06:44:41.043Z,13.65
2023-01-25T06:47:13.685Z,13.73
2023-01-25T06:49:43.093Z,13.60
2023-01-25T06:52:12.354Z,14.00
2023-01-25T06:54:42.163Z,13.77
2023-01-25T06:57:13.059Z,13.70
2023-01-25T06:59:42.273Z,16.88
2023-01-25T07:02:17.558Z,14.02
2023-01-25T07:04:46.711Z,13.90
2023-01-25T07:07:16.064Z,17.05
2023-01-25T07:09:45.383Z,13.38
2023-01-25T07:12:14.574Z,13.18
2023-01-25T07:14:43.808Z,13.90
2023-01-25T07:17:13.018Z,13.98
2023-01-25T07:19:42.178Z,14.63
2023-01-25T07:22:11.462Z,14.32
2023-01-25T07:24:40.680Z,15.25
2023-01-25T07:27:09.977Z,12.85
2023-01-25T07:29:39.188Z,12.57
2023-01-25T07:32:08.427Z,13.23
2023-01-25T07:34:37.678Z,13.30
2023-01-25T07:37:07.098Z,14.23
2023-01-25T07:39:36.966Z,12.82
2023-01-25T07:42:06.531Z,13.02
2023-01-25T07:44:35.784Z,11.75
2023-01-25T07:47:05.232Z,14.73
2023-01-25T07:49:34.673Z,14.60
2023-01-25T07:52:03.955Z,13.20
2023-01-25T07:54:33.280Z,12.85
2023-01-25T07:57:02.473Z,13.20
2023-01-25T07:59:33.017Z,13.38
2023-01-25T08:02:02.231Z,12.70
2023-01-25T08:04:31.540Z,13.23
2023-01-25T08:07:00.724Z,12.25
2023-01-25T08:09:29.965Z,13.70
2023-01-25T08:11:59.275Z,12.98
2023-01-25T08:14:28.518Z,13.40
2023-01-25T08:16:58.225Z,12.38
2023-01-25T08:19:27.753Z,13.25
2023-01-25T08:21:56.948Z,13.65
2023-01-25T08:24:26.196Z,13.13
2023-01-25T08:26:55.532Z,13.25
2023-01-25T08:29:25.122Z,13.18
2023-01-25T08:31:54.312Z,12.95
2023-01-25T08:34:23.679Z,15.70
2023-01-25T08:36:52.957Z,13.63
2023-01-25T08:39:22.218Z,12.88
2023-01-25T08:41:51.422Z,13.15
2023-01-25T08:44:25.075Z,12.35
2023-01-25T08:46:54.797Z,11.82
2023-01-25T08:49:24.141Z,12.55
2023-01-25T08:51:53.893Z,18.17
2023-01-25T08:54:23.324Z,16.30
2023-01-25T08:56:52.982Z,14.43
2023-01-25T08:59:22.175Z,12.60
2023-01-25T09:01:51.530Z,15.48
2023-01-25T09:04:20.943Z,19.35
2023-01-25T09:06:50.124Z,13.98
2023-01-25T09:09:19.434Z,13.60
2023-01-25T09:11:48.628Z,13.27
2023-01-25T09:14:17.875Z,13.55
2023-01-25T09:16:47.681Z,13.25
2023-01-25T09:19:16.977Z,12.98
2023-01-25T09:21:46.170Z,13.20
2023-01-25T09:24:15.715Z,13.80
2023-01-25T09:26:55.941Z,12.82
2023-01-25T09:29:28.789Z,13.60
2023-01-25T09:31:57.936Z,12.68
2023-01-25T09:34:27.075Z,12.80
2023-01-25T09:36:56.183Z,13.73
2023-01-25T09:39:25.396Z,12.27
2023-01-25T09:42:41.922Z,12.07
2023-01-25T09:45:35.126Z,14.65
2023-01-25T09:48:35.594Z,15.23
2023-01-25T09:51:16.530Z,13.90
2023-01-25T09:53:53.599Z,12.77
2023-01-25T09:56:33.923Z,13.27
2023-01-25T09:59:17.145Z,13.57
2023-01-25T10:02:18.636Z,13.18
2023-01-25T10:04:52.847Z,12.88
2023-01-25T10:07:26.474Z,14.27
2023-01-25T10:10:34.132Z,12.48
2023-01-25T10:13:06.874Z,13.15
2023-01-25T10:15:49.270Z,13.23
2023-01-25T10:18:24.602Z,12.82
2023-01-25T10:20:59.696Z,13.88
2023-01-25T10:23:47.246Z,13.23
2023-01-25T10:26:34.110Z,13.60
2023-01-25T10:29:14.895Z,13.35
2023-01-25T10:31:51.957Z,12.77
2023-01-25T10:34:57.064Z,13.73
2023-01-25T10:37:33.970Z,12.32
2023-01-25T10:40:24.784Z,11.57
2023-01-25T10:43:07.938Z,13.30
2023-01-25T10:45:37.086Z,13.13
2023-01-25T10:48:13.623Z,14.20
2023-01-25T10:50:48.741Z,13.65
2023-01-25T10:53:35.259Z,12.88
2023-01-25T10:56:22.414Z,13.40
2023-01-25T10:59:06.418Z,14.63
2023-01-25T11:01:38.479Z,14.50
2023-01-25T11:04:29.928Z,15.30
2023-01-25T11:07:00.264Z,13.95
2023-01-25T11:09:38.988Z,15.70
2023-01-25T11:12:23.139Z,15.55
2023-01-25T11:14:52.830Z,16.98
2023-01-25T11:17:32.967Z,18.30
2023-01-25T11:20:22.095Z,26.42
2023-01-25T11:22:58.519Z,30.25
2023-01-25T11:25:34.866Z,27.42
2023-01-25T11:28:27.129Z,25.85
2023-01-25T11:30:56.245Z,30.02
2023-01-25T11:33:27.981Z,31.38
2023-01-25T11:36:32.545Z,29.40
2023-01-25T11:39:13.283Z,27.88
2023-01-25T11:42:23.307Z,25.05
2023-01-25T11:44:55.340Z,21.27
2023-01-25T11:48:07.337Z,21.65
2023-01-25T11:51:14.986Z,23.55
2023-01-25T11:54:31.341Z,23.85
2023-01-25T11:57:11.218Z,39.20
2023-01-25T12:00:24.995Z,26.67
2023-01-25T12:03:35.324Z,25.50
2023-01-25T12:06:55.632Z,22.58
2023-01-25T12:09:35.174Z,23.85
2023-01-25T12:12:35.270Z,23.40
2023-01-25T12:15:27.070Z,24.58
2023-01-25T12:18:16.701Z,24.35
2023-01-25T12:21:08.350Z,24.35
2023-01-25T12:24:00.651Z,21.33
2023-01-25T12:26:51.006Z,25.80
2023-01-25T12:29:47.628Z,30.27
2023-01-25T12:32:26.172Z,30.05
2023-01-25T12:39:07.339Z,35.03
2023-01-25T12:42:17.340Z,28.88
2023-01-25T12:45:11.788Z,30.48
2023-01-25T12:48:05.702Z,30.45
2023-01-25T12:50:58.050Z,32.33
2023-01-25T12:53:43.519Z,31.75
2023-01-25T12:56:47.338Z,31.77
2023-01-25T12:59:55.639Z,32.42
2023-01-25T13:05:38.767Z,34.20
2023-01-25T13:08:39.445Z,32.30
2023-01-25T13:11:28.754Z,33.63
2023-01-25T13:14:17.750Z,29.73
2023-01-25T13:17:09.375Z,28.45
2023-01-25T13:19:44.643Z,31.00
2023-01-25T13:22:17.400Z,33.42
2023-01-25T13:25:07.709Z,36.33
2023-01-25T13:27:37.673Z,36.38
2023-01-25T13:30:35.658Z,39.85
2023-01-25T13:33:08.252Z,38.63
2023-01-25T13:35:43.686Z,33.63
2023-01-25T13:38:34.668Z,34.00
2023-01-25T13:41:17.742Z,32.92
2023-01-25T13:43:53.455Z,31.58
2023-01-25T13:46:27.504Z,35.08
2023-01-25T13:49:05.142Z,30.23
2023-01-25T13:51:40.337Z,30.83
2023-01-25T13:54:18.211Z,27.45
2023-01-25T13:56:47.759Z,29.25
2023-01-25T13:59:28.651Z,28.10
2023-01-25T14:02:00.612Z,27.17
2023-01-25T14:04:34.349Z,25.52
2023-01-25T14:07:10.909Z,22.48
2023-01-25T14:09:44.101Z,25.20
2023-01-25T14:12:24.816Z,23.10
2023-01-25T14:14:54.140Z,29.33
2023-01-25T14:17:25.953Z,24.45
2023-01-25T14:19:57.621Z,25.83
2023-01-25T14:22:30.437Z,22.98
2023-01-25T14:25:20.201Z,24.17
2023-01-25T14:28:00.239Z,24.10
2023-01-25T14:30:33.294Z,23.10
2023-01-25T14:33:30.685Z,26.38
2023-01-25T14:36:24.595Z,24.42
2023-01-25T14:38:55.342Z,24.70
2023-01-25T14:41:31.671Z,26.50
2023-01-25T14:44:12.381Z,23.95
2023-01-25T14:46:43.419Z,24.48
2023-01-25T14:49:15.294Z,27.42
2023-01-25T14:52:00.484Z,30.35
2023-01-25T14:54:34.347Z,32.72
2023-01-25T14:57:09.421Z,29.50
2023-01-25T14:59:45.244Z,31.17
2023-01-25T15:02:17.199Z,29.08
2023-01-25T15:05:17.526Z,28.95
2023-01-25T15:07:59.188Z,36.00
2023-01-25T15:10:34.468Z,39.15
2023-01-25T15:13:30.620Z,42.78
2023-01-25T15:16:06.779Z,41.97
2023-01-25T15:18:53.846Z,46.75
2023-01-25T15:21:34.731Z,50.20
2023-01-25T15:24:13.540Z,62.55
2023-01-25T15:26:42.839Z,58.50
2023-01-25T15:29:22.958Z,59.55
2023-01-25T15:31:53.976Z,52.10
2023-01-25T15:34:36.121Z,47.83
2023-01-25T15:37:05.376Z,51.72
2023-01-25T15:39:35.951Z,53.00
2023-01-25T15:42:05.432Z,55.03
2023-01-25T15:44:34.597Z,56.40
2023-01-25T15:47:03.794Z,55.28
2023-01-25T15:49:33.672Z,51.78
2023-01-25T15:52:02.862Z,49.83
2023-01-25T15:54:32.087Z,62.17
2023-01-25T15:57:01.958Z,64.15
2023-01-25T15:59:31.217Z,72.78
2023-01-25T16:02:00.449Z,56.08
2023-01-25T16:04:29.711Z,65.07
2023-01-25T16:06:59.663Z,62.10
2023-01-25T16:09:31.943Z,52.33
2023-01-25T16:12:03.428Z,56.70
2023-01-25T16:14:32.745Z,51.05
2023-01-25T16:17:06.412Z,48.90
2023-01-25T16:19:35.921Z,46.15
2023-01-25T16:22:05.140Z,51.22
2023-01-25T16:24:34.308Z,41.60
2023-01-25T16:27:03.805Z,39.85
2023-01-25T16:29:33.047Z,34.97
2023-01-25T16:32:02.279Z,34.00
2023-01-25T16:34:31.591Z,35.50
2023-01-25T16:37:02.700Z,36.35
2023-01-25T16:39:35.187Z,36.70
2023-01-25T16:42:04.358Z,36.13
2023-01-25T16:44:33.527Z,38.10
2023-01-25T16:47:03.138Z,36.67
2023-01-25T16:49:34.418Z,38.17
2023-01-25T16:52:07.170Z,37.85
2023-01-25T16:54:36.362Z,36.22
2023-01-25T16:57:15.058Z,37.15
2023-01-25T16:59:48.930Z,37.83
2023-01-25T17:02:18.002Z,39.08
2023-01-25T17:04:47.214Z,46.25
2023-01-25T17:07:16.736Z,43.80
2023-01-25T17:09:45.986Z,42.65
2023-01-25T17:12:15.414Z,39.75
2023-01-25T17:14:44.692Z,39.75
2023-01-25T17:17:13.864Z,38.38
2023-01-25T17:19:43.411Z,37.28
2023-01-25T17:22:13.042Z,38.30
2023-01-25T17:24:42.810Z,38.30
2023-01-25T17:27:12.663Z,37.00
2023-01-25T17:29:41.998Z,38.72
2023-01-25T17:32:11.271Z,37.38
2023-01-25T17:34:40.679Z,36.97
2023-01-25T17:37:09.855Z,36.10
2023-01-25T17:39:39.092Z,34.88
2023-01-25T17:42:10.041Z,36.55
2023-01-25T17:44:39.261Z,37.40
2023-01-25T17:47:08.413Z,37.25
2023-01-25T17:49:37.627Z,35.88
2023-01-25T17:52:06.933Z,32.83
2023-01-25T17:54:37.270Z,33.53
2023-01-25T17:57:06.481Z,34.30
2023-01-25T17:59:35.690Z,33.58
2023-01-25T18:02:05.021Z,34.72
2023-01-25T18:04:36.095Z,35.45
2023-01-25T18:07:05.254Z,36.80
2023-01-25T18:09:36.712Z,36.92
2023-01-25T18:12:06.441Z,37.40
2023-01-25T18:14:36.063Z,38.13
2023-01-25T18:17:05.393Z,36.47
2023-01-25T18:19:34.971Z,39.10
2023-01-25T18:22:04.411Z,37.53
2023-01-25T18:24:38.088Z,37.25
2023-01-25T18:27:18.716Z,39.45
2023-01-25T18:30:22.537Z,38.90
2023-01-25T18:32:51.745Z,40.10
2023-01-25T18:35:21.160Z,37.80
2023-01-25T18:37:50.373Z,37.97
2023-01-25T18:40:20.830Z,39.58
2023-01-25T18:42:50.717Z,38.80
2023-01-25T18:45:20.354Z,37.03
2023-01-25T18:47:49.555Z,36.22
2023-01-25T18:50:18.961Z,38.03
2023-01-25T18:52:48.735Z,37.83
2023-01-25T18:55:18.065Z,36.45
2023-01-25T18:57:47.273Z,37.08
2023-01-25T19:00:19.675Z,35.70
2023-01-25T19:02:48.872Z,36.22
2023-01-25T19:05:20.933Z,33.97
2023-01-25T19:07:50.095Z,37.47
2023-01-25T19:10:20.040Z,36.47
2023-01-25T19:12:49.322Z,37.22
2023-01-25T19:15:18.625Z,37.33
2023-01-25T19:17:47.822Z,35.42
2023-01-25T19:20:20.546Z,39.10
2023-01-25T19:22:49.788Z,40.92
2023-01-25T19:25:19.144Z,38.97
2023-01-25T19:27:48.447Z,38.47
2023-01-25T19:30:17.782Z,37.92
2023-01-25T19:32:46.999Z,35.88
2023-01-25T19:35:16.272Z,38.20
2023-01-25T19:37:45.453Z,37.42
2023-01-25T19:40:15.621Z,35.40
2023-01-25T19:42:44.854Z,38.30
2023-01-25T19:45:14.234Z,36.45
2023-01-25T19:47:43.519Z,36.28
2023-01-25T19:50:13.468Z,34.72
2023-01-25T19:52:42.676Z,33.47
2023-01-25T19:55:12.254Z,31.15
2023-01-25T19:57:41.555Z,31.63
2023-01-25T20:00:12.635Z,35.75
2023-01-25T20:02:42.751Z,34.78
2023-01-25T20:05:12.342Z,32.42
2023-01-25T20:07:42.460Z,31.75
2023-01-25T20:10:12.895Z,32.42
2023-01-25T20:12:42.119Z,34.53
2023-01-25T20:15:14.228Z,35.58
2023-01-25T20:17:44.558Z,34.15
2023-01-25T20:20:14.866Z,33.38
2023-01-25T20:22:44.090Z,34.85
2023-01-25T20:25:13.324Z,38.35
2023-01-25T20:27:42.511Z,38.95
2023-01-25T20:30:12.859Z,41.83
2023-01-25T20:32:42.066Z,41.50
2023-01-25T20:35:11.795Z,40.28
2023-01-25T20:37:41.081Z,42.03
2023-01-25T20:40:11.232Z,40.15
2023-01-25T20:42:40.538Z,39.38
2023-01-25T20:45:13.264Z,38.75
2023-01-25T20:47:42.447Z,34.97
2023-01-25T20:50:12.675Z,41.92
2023-01-25T20:52:41.866Z,38.88
2023-01-25T20:55:11.713Z,39.22
2023-01-25T20:57:41.968Z,42.75
2023-01-25T21:00:12.348Z,46.55
2023-01-25T21:02:41.599Z,40.33
2023-01-25T21:05:11.525Z,42.95
2023-01-25T21:07:40.780Z,44.53
2023-01-25T21:10:11.128Z,44.00
2023-01-25T21:12:40.844Z,51.38
2023-01-25T21:15:11.663Z,47.80
2023-01-25T21:17:41.019Z,51.05
2023-01-25T21:20:11.956Z,47.15
2023-01-25T21:22:41.240Z,46.55
2023-01-25T21:25:13.543Z,41.90
2023-01-25T21:27:42.765Z,42.13
2023-01-25T21:30:13.160Z,38.63
2023-01-25T21:32:44.067Z,43.17
2023-01-25T21:35:13.231Z,44.22
2023-01-25T21:37:42.657Z,43.42
2023-01-25T21:40:13.551Z,42.55
2023-01-25T21:42:42.815Z,44.38
2023-01-25T21:45:31.412Z,45.88
2023-01-25T21:50:48.702Z,56.17
2023-01-25T21:53:17.878Z,56.33
2023-01-25T21:55:47.021Z,61.28
2023-01-25T21:58:19.661Z,59.38
2023-01-25T22:00:48.815Z,56.15
2023-01-25T22:03:18.088Z,54.80
2023-01-25T22:05:47.280Z,55.15
2023-01-25T22:08:16.515Z,62.38
2023-01-25T22:10:45.690Z,62.15
2023-01-25T22:13:14.853Z,57.78
2023-01-25T22:15:44.097Z,57.60
2023-01-25T22:18:13.337Z,53.50
2023-01-25T22:20:42.445Z,54.22
2023-01-25T22:23:11.547Z,52.65
2023-01-25T22:25:40.696Z,54.58
2023-01-25T22:28:16.320Z,51.40
2023-01-25T22:30:45.481Z,53.47
2023-01-25T22:33:14.898Z,51.53
2023-01-25T22:35:43.971Z,51.92
2023-01-25T22:38:13.059Z,51.25
2023-01-25T22:40:42.204Z,50.63
2023-01-25T22:43:11.303Z,52.08
2023-01-25T22:45:40.480Z,52.42
2023-01-25T22:48:10.271Z,50.00
2023-01-25T22:50:39.353Z,49.47
2023-01-25T22:53:08.509Z,49.65
2023-01-25T22:55:37.695Z,51.13
2023-01-25T22:58:06.923Z,51.22
2023-01-25T23:00:36.134Z,52.67
2023-01-25T23:03:06.050Z,53.70
2023-01-25T23:05:35.243Z,52.38
2023-01-25T23:08:04.379Z,52.60
2023-01-25T23:10:33.546Z,50.80
2023-01-25T23:13:02.664Z,52.65
2023-01-25T23:15:31.916Z,52.47
2023-01-25T23:18:20.280Z,52.83
2023-01-25T23:20:49.471Z,54.30
2023-01-25T23:23:18.703Z,54.25
2023-01-25T23:25:48.767Z,55.65
2023-01-25T23:28:18.055Z,54.92
2023-01-25T23:30:47.263Z,56.78
2023-01-25T23:33:16.494Z,58.08
2023-01-25T23:35:45.687Z,58.75
2023-01-25T23:38:17.399Z,59.30
2023-01-25T23:40:47.107Z,61.20
2023-01-25T23:43:16.279Z,63.33
2023-01-25T23:45:45.596Z,64.63
2023-01-25T23:48:14.763Z,63.70
2023-01-25T23:50:43.919Z,62.20
2023-01-25T23:53:13.206Z,65.10
2023-01-25T23:55:42.368Z,68.07
2023-01-25T23:58:11.523Z,70.18
